Berlin, Wisconsin
Current Conditions -  °F | °C
As of 5:56 PM on Monday 20 Oct 2014 (Local Time) from KY50 Reporting Station
Overcast Overcast  
Wind Chill: 53°   Ceiling: 100
Heat Index: 53°   Visibility: 10mi
Dew Point: 42°   Wind: 8mph
Humidity: 66%   Direction: 350°N
Pressure: 29.98"   Gusts: NA
Location:  43.97°N, 88.95°W
Report Text: KY50 202256Z AUTO 35007KT 10SM OVC001 12/06 A2998 RMK AO2 TSNO T01160055 SLP153
Loading
Personal Weather Stations






























Interactive Weather Map
Tropical Storm Tracking
New forecast layout! Learn more

10-Day Weather Forecast

Advertisements
Track Severe Weather on mobile